Bunker Hill, IN (46914)

9:04 PM EST on February 20, 2017 (GMT -0500)
Amboy, IN | | Change Station
Active Advisory: Small Craft Advisory

Elev 799 ft 40.64 °N, 85.99 °W | Updated 2 minutes ago

Clear
Clear
54.4 °F
Feels Like 54.4 °F
N
5.0
Wind Variable Wind from SE
Gusts 5.0 mph

Today
High -- | Low -- °F
--% Chance of Precip.
Yesterday
High -- | Low -- °F
Precip. -- in
Pressure 30.07 in
Visibility 10.0 miles
Clouds Clear
Dew Point 46 °F
Humidity 72%
Rainfall 0.00 in
Snow Depth Not available.
7:31 AM 6:25 PM
Waning Crescent, 29% visible
METAR KGUS 210158Z AUTO 14009KT 10SM CLR 12/08 A3005 RMK AO2 SLP182 T01210078
Pressure 30.07 in
Visibility 10.0 miles
Clouds Clear
Dew Point 46 °F
Humidity 72%
Rainfall 0.00 in
Snow Depth Not available.
7:31 AM 6:25 PM
Waning Crescent, 29% visible
METAR KGUS 210158Z AUTO 14009KT 10SM CLR 12/08 A3005 RMK AO2 SLP182 T01210078

Get Your Daily Forecast Email!

Thanks for signing up!

Be on the lookout for a verification email in your inbox.

You'll start receiving the daily forecast at 8 AM.

×

10-Day Weather Forecast

Almanac

Astronomy

Feb. 20, 2017 Rise Set
Actual Time
Civil Twilight
Nautical Twilight
Astronomical Twilight
Moon
Length of Visible Light
Length of Day
Tomorrow will be .
, % of the Moon is Illuminated

Today's Extremes

State Highs State Lows

Community

WunderPhotos

Upload Photos

1,962,540 photos uploaded!

WunderBlog® & News

Nearby

Air Quality

  Air Quality AQ Index Pollutant
Not available.

Snow Depth

Station Depth Elevation

Earthquake Activity

City Distance Mag. Time & Date
Minimum magnitude displayed is 2.5.

Coastal Water Temperatures

Place Temperature

Stations

Nearby Weather Stations

Station Location Temp. Windchill Dew Point Humidity Wind Precip. Elev Updated Type
                   

Watches & Warnings

Small Craft Advisory
Issued: 3:53 PM EST Feb. 20, 2017 – National Weather Service

... Small Craft Advisory remains in effect until 4 am EST
Tuesday...

A Small Craft Advisory remains in effect until 4 am EST Tuesday.

* Winds: southeast 10 to 20 knots... veering south this
evening... then southwest 10 to 15 knots overnight. Gusts up to 25
knots.


* Waves: 1 to 4 feet.

Precautionary/preparedness actions...

A Small Craft Advisory means that sustained winds or frequent
gusts of 22 to 33 knots are likely... and/or waves greater than
4 feet are expected. Inexperienced mariners... especially those
operating smaller vessels should avoid navigating in these
conditions.